createdAt,value
2023-04-15T00:01:37.326Z,7.25
2023-04-15T00:03:41.459Z,6.28
2023-04-15T00:05:45.114Z,7.20
2023-04-15T00:07:48.725Z,6.97
2023-04-15T00:09:55.223Z,7.63
2023-04-15T00:12:00.118Z,5.65
2023-04-15T00:14:03.555Z,8.07
2023-04-15T00:16:08.441Z,7.28
2023-04-15T00:18:11.938Z,7.10
2023-04-15T00:20:15.708Z,6.70
2023-04-15T00:22:19.358Z,7.78
2023-04-15T00:24:23.358Z,9.25
2023-04-15T00:26:27.148Z,6.53
2023-04-15T00:28:32.285Z,7.50
2023-04-15T00:30:35.902Z,8.38
2023-04-15T00:32:39.791Z,13.65
2023-04-15T00:34:43.885Z,6.78
2023-04-15T00:36:47.376Z,9.10
2023-04-15T00:38:50.787Z,7.05
2023-04-15T00:40:55.213Z,6.07
2023-04-15T00:42:58.775Z,9.00
2023-04-15T00:45:03.938Z,7.35
2023-04-15T00:47:07.995Z,10.25
2023-04-15T00:49:13.142Z,8.05
2023-04-15T00:51:16.566Z,8.02
2023-04-15T00:53:20.322Z,7.07
2023-04-15T00:55:23.858Z,8.52
2023-04-15T00:57:29.106Z,7.30
2023-04-15T00:59:33.402Z,7.72
2023-04-15T01:01:39.051Z,9.20
2023-04-15T01:03:43.815Z,10.45
2023-04-15T01:05:47.404Z,8.43
2023-04-15T01:07:50.967Z,9.80
2023-04-15T01:09:54.552Z,8.70
2023-04-15T01:11:58.708Z,12.32
2023-04-15T01:14:02.581Z,9.13
2023-04-15T01:16:06.977Z,10.23
2023-04-15T01:18:12.357Z,11.55
2023-04-15T01:20:16.785Z,10.95
2023-04-15T01:22:21.179Z,10.70
2023-04-15T01:24:25.438Z,11.80
2023-04-15T01:26:30.855Z,11.15
2023-04-15T01:28:34.563Z,11.52
2023-04-15T01:30:38.611Z,14.27
2023-04-15T01:32:42.705Z,13.95
2023-04-15T01:35:05.008Z,11.30
2023-04-15T01:37:24.722Z,9.95
2023-04-15T01:39:28.103Z,10.88
2023-04-15T01:41:35.121Z,12.73
2023-04-15T01:43:39.768Z,12.68
2023-04-15T01:45:47.157Z,12.95
2023-04-15T01:47:51.877Z,11.63
2023-04-15T01:49:56.904Z,12.05
2023-04-15T01:52:01.787Z,12.32
2023-04-15T01:54:06.564Z,12.68
2023-04-15T01:56:11.442Z,12.95
2023-04-15T01:58:17.615Z,10.93
2023-04-15T02:00:22.443Z,12.80
2023-04-15T02:02:27.414Z,12.20
2023-04-15T02:04:34.350Z,13.30
2023-04-15T02:06:38.967Z,11.43
2023-04-15T02:08:43.682Z,11.35
2023-04-15T02:10:48.759Z,11.25
2023-04-15T02:12:54.166Z,10.90
2023-04-15T02:15:00.991Z,10.95
2023-04-15T02:17:08.535Z,10.25
2023-04-15T02:19:14.091Z,11.48
2023-04-15T02:21:19.275Z,10.60
2023-04-15T02:23:23.981Z,11.40
2023-04-15T02:25:28.662Z,11.20
2023-04-15T02:27:33.341Z,10.10
2023-04-15T02:29:37.991Z,10.45
2023-04-15T02:31:45.074Z,11.30
2023-04-15T02:33:49.766Z,10.85
2023-04-15T02:35:54.600Z,10.93
2023-04-15T02:37:59.409Z,12.63
2023-04-15T02:40:05.041Z,14.15
2023-04-15T02:42:09.729Z,11.27
2023-04-15T02:44:14.669Z,10.38
2023-04-15T02:46:22.077Z,14.23
2023-04-15T02:48:28.502Z,11.27
2023-04-15T02:50:33.322Z,10.73
2023-04-15T02:52:38.123Z,11.60
2023-04-15T02:54:42.839Z,11.30
2023-04-15T02:56:47.556Z,12.55
2023-04-15T02:58:52.383Z,12.75
2023-04-15T03:00:57.072Z,12.82
2023-04-15T03:03:04.804Z,12.50
2023-04-15T03:05:13.359Z,15.05
2023-04-15T03:07:22.270Z,13.25
2023-04-15T03:09:27.090Z,13.75
2023-04-15T03:11:33.610Z,13.02
2023-04-15T03:13:39.600Z,12.52
2023-04-15T03:15:49.726Z,13.10
2023-04-15T03:17:54.459Z,13.60
2023-04-15T03:19:59.196Z,13.00
2023-04-15T03:22:06.355Z,14.98
2023-04-15T03:24:11.268Z,15.30
2023-04-15T03:26:25.786Z,13.23
2023-04-15T03:28:30.852Z,18.95
2023-04-15T03:30:36.644Z,15.48
2023-04-15T03:32:41.516Z,16.83
2023-04-15T03:34:46.672Z,16.70
2023-04-15T03:36:51.426Z,18.30
2023-04-15T03:38:57.980Z,19.58
2023-04-15T03:41:02.594Z,17.75
2023-04-15T03:43:07.252Z,18.08
2023-04-15T03:45:12.885Z,18.92
2023-04-15T03:47:17.540Z,20.45
2023-04-15T03:49:23.141Z,22.30
2023-04-15T03:51:27.754Z,20.73
2023-04-15T03:53:32.430Z,20.67
2023-04-15T03:55:38.504Z,21.70
2023-04-15T03:57:43.191Z,22.38
2023-04-15T03:59:47.870Z,21.10
2023-04-15T04:01:52.557Z,27.08
2023-04-15T04:03:57.472Z,25.65
2023-04-15T04:06:02.242Z,27.85
2023-04-15T04:08:07.585Z,25.83
2023-04-15T04:10:12.638Z,28.20
2023-04-15T04:12:18.759Z,26.30
2023-04-15T04:14:29.351Z,27.88
2023-04-15T04:16:34.086Z,30.50
2023-04-15T04:18:38.944Z,27.90
2023-04-15T04:20:43.796Z,30.05
2023-04-15T04:22:48.563Z,27.75
2023-04-15T04:24:53.307Z,32.53
2023-04-15T04:26:58.214Z,28.85
2023-04-15T04:29:04.531Z,28.77
2023-04-15T04:31:09.399Z,30.23
2023-04-15T04:33:14.286Z,30.88
2023-04-15T04:35:19.073Z,32.83
2023-04-15T04:37:24.752Z,30.58
2023-04-15T04:39:29.583Z,33.33
2023-04-15T04:41:34.267Z,33.45
2023-04-15T04:43:38.956Z,32.85
2023-04-15T04:45:45.258Z,31.58
2023-04-15T04:47:50.131Z,32.58
2023-04-15T04:49:54.878Z,30.98
2023-04-15T04:51:59.757Z,34.38
2023-04-15T04:54:05.137Z,35.80
2023-04-15T04:56:10.337Z,37.55
2023-04-15T04:58:15.082Z,38.83
2023-04-15T05:00:20.441Z,40.15
2023-04-15T05:02:27.565Z,40.47
2023-04-15T05:04:32.602Z,44.08
2023-04-15T05:06:37.604Z,42.60
2023-04-15T05:08:42.614Z,44.90
2023-04-15T05:10:47.528Z,42.05
2023-04-15T05:12:52.733Z,41.22
2023-04-15T05:14:57.641Z,41.38
2023-04-15T05:17:02.294Z,41.78
2023-04-15T05:19:08.588Z,45.70
2023-04-15T05:21:13.618Z,42.30
2023-04-15T05:23:18.977Z,44.22
2023-04-15T05:25:23.676Z,43.60
2023-04-15T05:27:28.368Z,42.63
2023-04-15T05:29:33.068Z,44.17
2023-04-15T05:31:38.321Z,47.15
2023-04-15T05:33:43.442Z,42.63
2023-04-15T05:35:49.567Z,47.03
2023-04-15T05:37:54.283Z,50.42
2023-04-15T05:40:00.495Z,46.50
2023-04-15T05:42:07.586Z,42.00
2023-04-15T05:44:13.153Z,41.22
2023-04-15T05:46:18.680Z,41.92
2023-04-15T05:48:23.431Z,41.22
2023-04-15T05:50:28.157Z,42.17
2023-04-15T05:52:34.480Z,40.10
2023-04-15T05:54:39.255Z,42.88
2023-04-15T05:56:44.044Z,42.33
2023-04-15T05:58:48.827Z,40.85
2023-04-15T06:00:55.114Z,42.78
2023-04-15T06:03:00.430Z,43.03
2023-04-15T06:05:09.817Z,39.47
2023-04-15T06:07:14.735Z,44.00
2023-04-15T06:09:21.052Z,40.95
2023-04-15T06:11:26.870Z,44.20
2023-04-15T06:13:31.612Z,44.67
2023-04-15T06:15:36.307Z,47.67
2023-04-15T06:17:41.070Z,46.35
2023-04-15T06:19:45.998Z,49.42
2023-04-15T06:21:50.755Z,49.47
2023-04-15T06:23:56.780Z,49.22
2023-04-15T06:26:06.429Z,47.13
2023-04-15T06:28:19.310Z,51.97
2023-04-15T06:30:24.549Z,47.15
2023-04-15T06:32:38.063Z,48.17
2023-04-15T06:34:52.215Z,54.30
2023-04-15T06:36:59.100Z,49.38
2023-04-15T06:39:09.233Z,51.88
2023-04-15T06:41:17.575Z,50.80
2023-04-15T06:43:25.402Z,52.78
2023-04-15T06:45:32.486Z,49.72
2023-04-15T06:47:38.132Z,54.42
2023-04-15T06:49:45.032Z,52.17
2023-04-15T06:51:51.496Z,53.22
2023-04-15T06:53:57.288Z,50.38
2023-04-15T06:56:02.077Z,55.63
2023-04-15T06:58:08.256Z,51.70
2023-04-15T07:00:14.074Z,53.85
2023-04-15T07:02:18.868Z,54.58
2023-04-15T07:04:24.590Z,56.17
2023-04-15T07:06:29.425Z,57.17
2023-04-15T07:08:34.146Z,58.35
2023-04-15T07:10:38.878Z,56.05
2023-04-15T07:12:43.689Z,58.28
2023-04-15T07:14:49.797Z,59.15
2023-04-15T07:16:54.583Z,54.45
2023-04-15T07:18:59.445Z,57.28
2023-04-15T07:21:04.534Z,57.42
2023-04-15T07:23:09.415Z,58.53
2023-04-15T07:25:14.141Z,57.42
2023-04-15T07:27:18.869Z,55.03
2023-04-15T07:29:23.587Z,57.55
2023-04-15T07:31:29.809Z,57.65
2023-04-15T07:33:34.552Z,60.53
2023-04-15T07:35:39.352Z,56.92
2023-04-15T07:37:44.533Z,59.03
2023-04-15T07:39:49.186Z,53.53
2023-04-15T07:41:54.082Z,56.65
2023-04-15T07:43:59.057Z,55.13
2023-04-15T07:46:03.743Z,54.70
2023-04-15T07:48:09.935Z,57.28
2023-04-15T07:50:14.655Z,56.53
2023-04-15T07:52:19.497Z,59.28
2023-04-15T07:54:24.255Z,57.88
2023-04-15T07:56:29.045Z,55.00
2023-04-15T07:58:34.794Z,54.28
2023-04-15T08:00:40.278Z,56.92
2023-04-15T08:02:47.021Z,59.47
2023-04-15T08:04:53.438Z,61.40
2023-04-15T08:06:58.577Z,64.55
2023-04-15T08:09:03.638Z,61.88
2023-04-15T08:11:08.653Z,57.80
2023-04-15T08:13:13.611Z,57.42
2023-04-15T08:15:18.463Z,61.40
2023-04-15T08:17:23.229Z,58.63
2023-04-15T08:19:28.151Z,54.35
2023-04-15T08:21:34.296Z,59.75
2023-04-15T08:23:39.360Z,57.08
2023-04-15T08:25:44.055Z,58.63
2023-04-15T08:27:48.720Z,56.78
2023-04-15T08:29:54.172Z,59.53
2023-04-15T08:31:59.141Z,59.17
2023-04-15T08:34:03.923Z,63.25
2023-04-15T08:36:09.430Z,60.80
2023-04-15T08:38:15.657Z,60.00
2023-04-15T08:40:20.825Z,59.97
2023-04-15T08:42:32.613Z,59.90
2023-04-15T08:44:38.403Z,58.47
2023-04-15T08:46:44.731Z,60.33
2023-04-15T08:48:51.135Z,58.17
2023-04-15T08:50:56.165Z,56.88
2023-04-15T08:53:01.480Z,55.80
2023-04-15T08:55:10.680Z,58.22
2023-04-15T08:57:16.395Z,58.58
2023-04-15T08:59:22.106Z,58.35
2023-04-15T09:01:27.203Z,58.30
2023-04-15T09:03:33.652Z,58.60
2023-04-15T09:05:39.663Z,57.88
2023-04-15T09:07:44.591Z,58.15
2023-04-15T09:09:50.470Z,57.85
2023-04-15T09:11:56.934Z,54.38
2023-04-15T09:14:01.632Z,53.90
2023-04-15T09:16:08.477Z,52.53
2023-04-15T09:18:13.819Z,59.22
2023-04-15T09:20:19.933Z,53.92
2023-04-15T09:22:24.762Z,57.85
2023-04-15T09:24:38.971Z,55.95
2023-04-15T09:26:44.176Z,56.17
2023-04-15T09:28:50.249Z,55.03
2023-04-15T09:30:58.339Z,56.78
2023-04-15T09:33:08.159Z,53.58
2023-04-15T09:35:14.122Z,54.92
2023-04-15T09:37:31.826Z,52.55
2023-04-15T09:39:51.087Z,59.00
2023-04-15T09:42:08.770Z,55.45
2023-04-15T09:44:25.714Z,58.72
2023-04-15T09:46:43.819Z,56.72
2023-04-15T09:48:48.540Z,61.38
2023-04-15T09:50:54.110Z,55.85
2023-04-15T09:52:59.707Z,57.13
2023-04-15T09:55:04.513Z,58.47
2023-04-15T09:57:10.206Z,56.95
2023-04-15T09:59:15.733Z,55.55
2023-04-15T10:01:22.918Z,52.60
2023-04-15T10:03:30.413Z,52.63
2023-04-15T10:05:36.192Z,51.67
2023-04-15T10:07:42.955Z,49.75
2023-04-15T10:09:48.113Z,46.13
2023-04-15T10:11:53.523Z,46.13
2023-04-15T10:13:59.092Z,47.25
2023-04-15T10:16:07.980Z,46.33
2023-04-15T10:18:17.233Z,43.80
2023-04-15T10:20:23.975Z,50.78
2023-04-15T10:22:29.900Z,50.15
2023-04-15T10:24:34.895Z,47.08
2023-04-15T10:26:39.943Z,45.92
2023-04-15T10:28:44.671Z,47.00
2023-04-15T10:30:50.128Z,45.22
2023-04-15T10:32:55.294Z,43.42
2023-04-15T10:35:02.490Z,40.92
2023-04-15T10:37:11.109Z,40.10
2023-04-15T10:39:41.188Z,37.75
2023-04-15T10:41:45.875Z,39.97
2023-04-15T10:43:53.094Z,44.95
2023-04-15T10:45:57.881Z,43.80
2023-04-15T10:48:04.532Z,42.80
2023-04-15T10:50:11.626Z,44.70
2023-04-15T10:52:17.930Z,40.25
2023-04-15T10:54:34.798Z,37.85
2023-04-15T10:56:39.627Z,34.22
2023-04-15T10:58:45.553Z,38.78
2023-04-15T11:00:53.565Z,28.00
2023-04-15T11:02:59.670Z,30.05
2023-04-15T11:05:04.513Z,26.75
2023-04-15T11:07:11.114Z,26.27
2023-04-15T11:09:33.329Z,27.90
2023-04-15T11:12:09.849Z,28.48
2023-04-15T11:14:17.292Z,20.25
2023-04-15T11:16:23.109Z,24.20
2023-04-15T11:18:30.656Z,21.33
2023-04-15T11:20:35.403Z,20.70
2023-04-15T11:22:49.159Z,21.02
2023-04-15T11:24:54.088Z,21.40
2023-04-15T11:26:59.969Z,16.02
2023-04-15T11:29:05.388Z,18.35
2023-04-15T11:31:12.786Z,14.80
2023-04-15T11:33:18.006Z,16.42
2023-04-15T11:35:23.183Z,13.63
2023-04-15T11:37:31.781Z,16.38
2023-04-15T11:39:38.909Z,15.05
2023-04-15T11:41:44.242Z,17.05
2023-04-15T11:43:48.944Z,15.05
2023-04-15T11:45:55.666Z,14.82
2023-04-15T11:48:07.895Z,14.38
2023-04-15T11:50:16.734Z,14.85
2023-04-15T11:52:20.232Z,14.32
2023-04-15T11:54:23.914Z,14.27
2023-04-15T11:56:28.826Z,13.20
2023-04-15T11:58:32.543Z,12.05
2023-04-15T12:00:36.861Z,13.48
2023-04-15T12:02:40.526Z,11.90
2023-04-15T12:04:46.381Z,13.55
2023-04-15T12:06:50.124Z,12.90
2023-04-15T12:09:05.868Z,10.77
2023-04-15T12:11:09.304Z,12.57
2023-04-15T12:13:14.181Z,12.13
2023-04-15T12:15:17.877Z,13.65
2023-04-15T12:17:21.410Z,18.55
2023-04-15T12:19:27.675Z,14.45
2023-04-15T12:21:37.164Z,12.02
2023-04-15T12:23:41.668Z,14.82
2023-04-15T12:25:45.114Z,15.45
2023-04-15T12:27:53.539Z,13.02
2023-04-15T12:30:08.119Z,10.57
2023-04-15T12:32:13.188Z,10.98
2023-04-15T12:34:16.974Z,11.95
2023-04-15T12:36:20.370Z,14.35
2023-04-15T12:38:23.844Z,12.27
2023-04-15T12:40:27.311Z,15.77
2023-04-15T12:42:30.677Z,13.93
2023-04-15T12:44:34.686Z,13.48
2023-04-15T12:46:39.678Z,14.07
2023-04-15T12:48:43.587Z,13.15
2023-04-15T12:50:47.198Z,13.90
2023-04-15T12:52:50.536Z,13.68
2023-04-15T12:54:54.876Z,15.48
2023-04-15T12:56:58.495Z,14.60
2023-04-15T12:59:02.279Z,13.27
2023-04-15T13:01:06.624Z,16.98
2023-04-15T13:03:11.657Z,14.30
2023-04-15T13:05:15.980Z,15.88
2023-04-15T13:07:19.452Z,12.30
2023-04-15T13:09:22.902Z,12.55
2023-04-15T13:11:26.564Z,14.95
2023-04-15T13:13:32.008Z,14.27
2023-04-15T13:15:35.795Z,13.02
2023-04-15T13:17:39.684Z,11.52
2023-04-15T13:19:44.677Z,14.65
2023-04-15T13:21:48.340Z,14.02
2023-04-15T13:23:52.381Z,13.95
2023-04-15T13:25:56.088Z,14.55
2023-04-15T13:28:01.305Z,13.35
2023-04-15T13:30:07.684Z,14.50
2023-04-15T13:32:12.214Z,13.18
2023-04-15T13:34:15.689Z,13.50
2023-04-15T13:36:21.224Z,13.00
2023-04-15T13:38:26.249Z,14.20
2023-04-15T13:40:29.942Z,12.55
2023-04-15T13:42:33.422Z,15.40
2023-04-15T13:44:37.121Z,11.15
2023-04-15T13:46:42.063Z,8.95
2023-04-15T13:48:45.541Z,13.93
2023-04-15T13:50:49.169Z,12.45
2023-04-15T13:52:54.102Z,11.95
2023-04-15T13:55:06.970Z,10.38
2023-04-15T13:57:20.878Z,11.25
2023-04-15T13:59:24.345Z,10.20
2023-04-15T14:01:27.953Z,12.50
2023-04-15T14:03:31.705Z,10.88
2023-04-15T14:05:35.681Z,11.00
2023-04-15T14:07:39.307Z,10.32
2023-04-15T14:09:44.786Z,11.23
2023-04-15T14:11:48.214Z,9.93
2023-04-15T14:13:51.738Z,9.18
2023-04-15T14:15:55.265Z,11.60
2023-04-15T14:17:59.144Z,8.75
2023-04-15T14:20:02.893Z,10.18
2023-04-15T14:22:06.514Z,11.30
2023-04-15T14:24:10.003Z,12.80
2023-04-15T14:26:15.008Z,11.60
2023-04-15T14:28:18.518Z,10.23
2023-04-15T14:30:22.072Z,12.10
2023-04-15T14:32:26.634Z,10.80
2023-04-15T14:35:00.712Z,10.13
2023-04-15T14:37:05.179Z,16.00
2023-04-15T14:39:09.334Z,11.45
2023-04-15T14:41:14.509Z,12.20
2023-04-15T14:43:18.259Z,13.02
2023-04-15T14:45:21.751Z,11.95
2023-04-15T14:47:26.320Z,14.23
2023-04-15T15:14:11.430Z,12.18
2023-04-15T15:16:16.139Z,12.77
2023-04-15T15:18:19.932Z,12.45
2023-04-15T15:20:23.653Z,13.20
2023-04-15T15:22:27.210Z,11.63
2023-04-15T15:24:30.898Z,11.80
2023-04-15T15:26:34.417Z,12.13
2023-04-15T15:28:39.277Z,11.25
2023-04-15T15:30:42.742Z,10.77
2023-04-15T15:32:46.284Z,11.73
2023-04-15T15:34:49.816Z,11.48
2023-04-15T15:36:53.296Z,11.65
2023-04-15T15:38:58.556Z,13.23
2023-04-15T15:41:03.092Z,10.75
2023-04-15T15:43:06.555Z,12.27
2023-04-15T15:45:12.274Z,11.45
2023-04-15T15:47:15.788Z,10.50
2023-04-15T15:49:19.921Z,12.43
2023-04-15T15:51:23.398Z,10.43
2023-04-15T15:53:26.884Z,16.13
2023-04-15T15:55:30.651Z,12.77
2023-04-15T15:57:34.188Z,13.32
2023-04-15T15:59:41.178Z,11.75
2023-04-15T16:01:46.174Z,13.40
2023-04-15T16:03:49.896Z,15.52
2023-04-15T16:05:53.412Z,12.63
2023-04-15T16:07:56.823Z,12.02
2023-04-15T16:10:00.317Z,12.55
2023-04-15T16:12:04.046Z,12.57
2023-04-15T16:14:07.609Z,12.43
2023-04-15T16:16:11.397Z,10.95
2023-04-15T16:18:16.292Z,12.93
2023-04-15T16:20:19.981Z,13.40
2023-04-15T16:22:23.413Z,13.90
2023-04-15T16:24:28.061Z,16.27
2023-04-15T16:26:32.392Z,15.55
2023-04-15T16:28:36.113Z,13.48
2023-04-15T16:30:41.378Z,14.43
2023-04-15T16:32:44.942Z,14.75
2023-04-15T16:34:49.821Z,15.23
2023-04-15T16:36:53.457Z,15.70
2023-04-15T16:38:56.983Z,15.32
2023-04-15T16:41:02.650Z,15.80
2023-04-15T16:43:07.420Z,13.75
2023-04-15T16:45:11.785Z,14.68
2023-04-15T16:47:15.294Z,15.45
2023-04-15T16:49:19.364Z,15.88
2023-04-15T16:51:24.278Z,14.50
2023-04-15T16:53:27.775Z,17.10
2023-04-15T16:55:31.364Z,19.77
2023-04-15T16:58:00.456Z,16.10
2023-04-15T16:59:58.805Z,15.77
2023-04-15T17:02:02.899Z,18.10
2023-04-15T17:04:09.162Z,15.77
2023-04-15T17:06:13.293Z,17.35
2023-04-15T17:08:18.211Z,20.23
2023-04-15T17:10:21.752Z,22.95
2023-04-15T17:12:25.171Z,16.60
2023-04-15T17:14:29.107Z,18.85
2023-04-15T17:16:34.904Z,19.92
2023-04-15T17:18:39.777Z,21.10
2023-04-15T17:20:50.974Z,20.65
2023-04-15T17:22:54.796Z,20.70
2023-04-15T17:25:02.857Z,20.50
2023-04-15T17:27:09.555Z,19.50
2023-04-15T17:29:14.133Z,20.45
2023-04-15T17:31:22.794Z,19.00
2023-04-15T17:34:00.277Z,18.77
2023-04-15T17:36:30.979Z,17.50
2023-04-15T17:38:54.457Z,19.55
2023-04-15T17:41:19.363Z,19.05
2023-04-15T17:43:42.882Z,18.02
2023-04-15T17:46:08.445Z,19.88
2023-04-15T17:48:31.901Z,21.55
2023-04-15T17:50:55.539Z,21.25
2023-04-15T17:53:18.980Z,20.90
2023-04-15T17:55:42.418Z,20.98
2023-04-15T17:58:07.273Z,20.38
2023-04-15T18:00:30.621Z,21.90
2023-04-15T18:02:54.180Z,21.65
2023-04-15T18:05:19.821Z,22.17
2023-04-15T18:07:43.398Z,21.15
2023-04-15T18:10:08.789Z,23.63
2023-04-15T18:12:32.172Z,23.88
2023-04-15T18:14:57.062Z,22.98
2023-04-15T18:17:20.821Z,22.45
2023-04-15T18:19:45.952Z,26.27
2023-04-15T18:21:49.362Z,22.42
2023-04-15T18:23:52.748Z,23.70
2023-04-15T18:25:57.349Z,27.90
2023-04-15T18:28:00.982Z,24.10
2023-04-15T18:30:07.271Z,27.63
2023-04-15T18:32:11.249Z,24.75
2023-04-15T18:34:14.814Z,27.48
2023-04-15T18:36:18.387Z,28.58
2023-04-15T18:38:21.912Z,25.67
2023-04-15T18:40:25.392Z,23.95
2023-04-15T18:42:28.959Z,23.80
2023-04-15T18:44:32.695Z,21.80
2023-04-15T18:46:37.622Z,25.95
2023-04-15T18:48:41.258Z,25.92
2023-04-15T18:50:45.103Z,24.42
2023-04-15T18:52:48.689Z,25.48
2023-04-15T18:54:52.189Z,24.15
2023-04-15T18:56:56.619Z,26.05
2023-04-15T18:59:27.566Z,26.52
2023-04-15T19:01:23.660Z,28.25
2023-04-15T19:03:29.330Z,25.55
2023-04-15T19:05:33.200Z,25.58
2023-04-15T19:07:38.864Z,28.65
2023-04-15T19:09:43.396Z,27.63
2023-04-15T19:11:47.713Z,23.40
2023-04-15T19:13:53.584Z,27.35
2023-04-15T19:16:04.072Z,25.67
2023-04-15T19:18:14.850Z,23.90
2023-04-15T19:20:22.747Z,30.73
2023-04-15T19:22:31.903Z,27.13
2023-04-15T19:24:38.688Z,24.08
2023-04-15T19:26:42.993Z,26.38
2023-04-15T19:28:47.119Z,26.20
2023-04-15T19:30:52.431Z,26.80
2023-04-15T19:32:55.993Z,23.73
2023-04-15T19:34:59.571Z,25.52
2023-04-15T19:37:04.521Z,22.95
2023-04-15T19:39:08.258Z,23.60
2023-04-15T19:41:13.967Z,25.13
2023-04-15T19:43:17.933Z,24.80
2023-04-15T19:45:21.333Z,29.30
2023-04-15T19:47:24.828Z,27.83
2023-04-15T19:49:28.356Z,20.85
2023-04-15T19:51:31.934Z,26.23
2023-04-15T19:53:36.920Z,24.08
2023-04-15T19:55:40.513Z,25.90
2023-04-15T19:57:45.415Z,25.15
2023-04-15T19:59:52.431Z,23.60
2023-04-15T20:01:56.165Z,25.70
2023-04-15T20:04:00.151Z,28.98
2023-04-15T20:06:04.075Z,26.25
2023-04-15T20:08:07.808Z,25.60
2023-04-15T20:10:13.395Z,25.13
2023-04-15T20:12:49.303Z,23.40
2023-04-15T20:14:41.358Z,20.80
2023-04-15T20:16:44.917Z,25.92
2023-04-15T20:18:48.362Z,22.17
2023-04-15T20:20:52.014Z,25.58
2023-04-15T20:22:55.700Z,24.77
2023-04-15T20:24:59.202Z,29.67
2023-04-15T20:27:04.110Z,23.58
2023-04-15T20:29:07.906Z,23.52
2023-04-15T20:31:11.838Z,24.63
2023-04-15T20:33:15.544Z,23.92
2023-04-15T20:35:19.919Z,24.13
2023-04-15T20:37:23.449Z,24.48
2023-04-15T20:39:27.131Z,24.67
2023-04-15T20:41:30.676Z,25.08
2023-04-15T20:43:35.620Z,22.50
2023-04-15T20:45:39.475Z,23.63
2023-04-15T20:47:43.182Z,22.08
2023-04-15T20:49:47.524Z,26.45
2023-04-15T20:51:50.977Z,28.00
2023-04-15T20:53:55.636Z,26.45
2023-04-15T20:56:00.326Z,24.50
2023-04-15T20:58:03.769Z,21.65
2023-04-15T21:00:11.045Z,26.65
2023-04-15T21:02:14.757Z,29.73
2023-04-15T21:04:18.596Z,28.30
2023-04-15T21:06:22.153Z,24.92
2023-04-15T21:08:30.046Z,26.15
2023-04-15T21:10:35.407Z,30.88
2023-04-15T21:12:40.952Z,25.65
2023-04-15T21:14:44.353Z,25.77
2023-04-15T21:16:49.259Z,28.58
2023-04-15T21:18:52.722Z,28.70
2023-04-15T21:20:59.952Z,25.30
2023-04-15T21:23:03.450Z,26.85
2023-04-15T21:25:07.888Z,25.10
2023-04-15T21:27:11.569Z,26.35
2023-04-15T21:29:15.092Z,28.77
2023-04-15T21:31:18.898Z,28.95
2023-04-15T21:33:24.106Z,24.83
2023-04-15T21:35:28.741Z,29.00
2023-04-15T21:37:32.634Z,29.58
2023-04-15T21:39:36.169Z,30.08
2023-04-15T21:41:39.649Z,29.00
2023-04-15T21:43:43.146Z,27.45
2023-04-15T21:46:21.374Z,26.25
2023-04-15T21:48:10.122Z,25.15
2023-04-15T21:50:15.231Z,26.52
2023-04-15T21:52:18.909Z,29.45
2023-04-15T21:54:22.416Z,28.05
2023-04-15T21:56:26.528Z,25.20
2023-04-15T21:58:30.011Z,30.35
2023-04-15T22:00:34.265Z,27.73
2023-04-15T22:02:38.516Z,29.77
2023-04-15T22:04:42.039Z,31.50
2023-04-15T22:06:47.038Z,30.38
2023-04-15T22:08:57.062Z,27.45
2023-04-15T22:11:01.369Z,28.60
2023-04-15T22:13:08.590Z,26.48
2023-04-15T22:15:12.197Z,25.48
2023-04-15T22:17:15.647Z,28.58
2023-04-15T22:19:19.251Z,26.58
2023-04-15T22:21:22.777Z,30.02
2023-04-15T22:23:27.686Z,30.80
2023-04-15T22:25:31.706Z,26.60
2023-04-15T22:27:35.229Z,27.73
2023-04-15T22:29:38.932Z,29.55
2023-04-15T22:31:42.479Z,28.80
2023-04-15T22:33:46.127Z,26.17
2023-04-15T22:35:49.636Z,29.05
2023-04-15T22:37:53.929Z,30.80
2023-04-15T22:39:58.792Z,29.75
2023-04-15T22:42:02.561Z,32.17
2023-04-15T22:44:06.076Z,28.38
2023-04-15T22:46:09.535Z,27.42
2023-04-15T22:48:13.104Z,27.58
2023-04-15T22:50:16.604Z,26.08
2023-04-15T22:52:30.061Z,28.88
2023-04-15T22:54:34.406Z,30.77
2023-04-15T22:56:39.273Z,33.53
2023-04-15T22:58:42.729Z,31.30
2023-04-15T23:00:46.323Z,25.80
2023-04-15T23:02:49.924Z,29.40
2023-04-15T23:04:53.561Z,30.65
2023-04-15T23:06:57.297Z,29.58
2023-04-15T23:09:00.871Z,28.70
2023-04-15T23:11:04.319Z,28.95
2023-04-15T23:13:09.199Z,27.20
2023-04-15T23:15:13.178Z,30.38
2023-04-15T23:17:16.729Z,27.13
2023-04-15T23:19:20.331Z,29.40
2023-04-15T23:21:25.964Z,29.13
2023-04-15T23:23:29.591Z,32.33
2023-04-15T23:25:33.048Z,28.70
2023-04-15T23:27:39.164Z,34.53
2023-04-15T23:29:44.183Z,29.85
2023-04-15T23:31:47.681Z,26.75
2023-04-15T23:33:51.273Z,30.67
2023-04-15T23:35:54.895Z,30.70
2023-04-15T23:37:58.396Z,29.23
2023-04-15T23:40:01.870Z,29.42
2023-04-15T23:42:05.498Z,33.85
2023-04-15T23:44:09.820Z,30.90
2023-04-15T23:46:14.747Z,27.52
2023-04-15T23:48:18.272Z,32.80
2023-04-15T23:50:21.728Z,26.92
2023-04-15T23:52:25.162Z,28.75
2023-04-15T23:54:28.594Z,30.88
2023-04-15T23:56:32.264Z,28.50
2023-04-15T23:58:35.778Z,26.17
